Time;durP1;ratioP1;P1;durP2;ratioP2;P2;SDS_P1;SDS_P2;PMS_P1;PMS_P2;Temp;Humidity;BMP_temperature;BMP_pressure;BME280_temperature;BME280_humidity;BME280_pressure;Samples;Min_cycle;Max_cycle;Signal;HPM_P1;HPM_P2
2024/01/27 00:01:29;;;;;;;21.70;10.48;;;;;;;-4.24;100.00;101057.72;10414226;28;20041;-73
2024/01/27 00:06:32;;;;;;;22.27;10.98;;;;;;;-4.17;100.00;101056.00;10384944;28;20290;-73
2024/01/27 00:11:34;;;;;;;17.42;9.80;;;;;;;-4.10;100.00;101057.00;10376497;28;20038;-72
2024/01/27 00:16:37;;;;;;;20.70;10.02;;;;;;;-4.22;100.00;101063.75;10394598;28;20049;-72
2024/01/27 00:21:39;;;;;;;19.30;10.55;;;;;;;-4.21;100.00;101057.38;10396722;28;20041;-73
2024/01/27 00:26:43;;;;;;;18.77;9.80;;;;;;;-4.20;100.00;101051.00;10407754;28;20513;-72
2024/01/27 00:31:46;;;;;;;17.73;9.57;;;;;;;-4.22;100.00;101058.38;10424075;28;20108;-72
2024/01/27 00:36:48;;;;;;;13.90;7.20;;;;;;;-4.35;99.92;101055.41;10413107;28;20049;-72
2024/01/27 00:41:52;;;;;;;17.63;8.10;;;;;;;-4.29;100.00;101058.25;10394691;28;20497;-72
2024/01/27 00:46:55;;;;;;;15.13;7.82;;;;;;;-4.28;100.00;101059.09;10408402;28;20053;-72
2024/01/27 00:51:57;;;;;;;10.38;5.55;;;;;;;-4.16;99.33;101067.59;10379996;28;20748;-72
2024/01/27 00:57:00;;;;;;;10.18;6.13;;;;;;;-4.08;99.34;101070.22;10380167;28;20057;-73
2024/01/27 01:02:02;;;;;;;9.55;5.78;;;;;;;-4.07;99.50;101082.59;10388215;28;20038;-73
2024/01/27 01:07:04;;;;;;;9.02;4.47;;;;;;;-4.00;98.90;101076.34;10398942;28;20041;-72
2024/01/27 01:12:07;;;;;;;8.75;4.45;;;;;;;-4.00;98.60;101092.44;10386212;28;20050;-73
2024/01/27 01:17:09;;;;;;;8.40;4.45;;;;;;;-4.09;98.33;101090.00;10399743;28;20049;-73
2024/01/27 01:22:12;;;;;;;8.82;4.55;;;;;;;-3.96;98.24;101098.31;10412191;28;20033;-73
2024/01/27 01:27:16;;;;;;;6.88;4.53;;;;;;;-3.86;98.36;101100.75;10397689;28;20046;-73
2024/01/27 01:32:18;;;;;;;8.68;4.70;;;;;;;-3.83;98.36;101095.03;10407711;28;20041;-73
2024/01/27 01:37:20;;;;;;;8.23;4.60;;;;;;;-3.84;98.42;101101.41;10420921;28;20049;-74
2024/01/27 01:42:24;;;;;;;7.80;4.60;;;;;;;-4.03;97.95;101100.84;10404576;28;20044;-74
2024/01/27 01:47:27;;;;;;;7.10;4.55;;;;;;;-4.02;98.26;101101.66;10401320;28;20046;-73
2024/01/27 01:52:30;;;;;;;9.25;5.47;;;;;;;-3.98;98.37;101101.16;10387619;28;20041;-73
2024/01/27 01:57:33;;;;;;;10.10;5.13;;;;;;;-3.97;98.57;101100.16;10403863;28;20053;-73
2024/01/27 02:02:35;;;;;;;10.02;5.68;;;;;;;-4.00;98.19;101105.84;10403322;28;20042;-73
2024/01/27 02:07:37;;;;;;;11.63;5.25;;;;;;;-4.07;98.83;101099.53;10387096;28;20600;-73
2024/01/27 02:12:40;;;;;;;9.98;5.75;;;;;;;-4.01;98.59;101098.81;10409725;28;20072;-72
2024/01/27 02:17:42;;;;;;;13.15;6.60;;;;;;;-3.99;99.13;101104.88;10403001;28;20045;-73
2024/01/27 02:22:44;;;;;;;14.32;7.72;;;;;;;-3.93;99.32;101110.53;10399671;28;20042;-72
2024/01/27 02:27:48;;;;;;;13.23;6.80;;;;;;;-3.90;99.19;101104.81;10386634;28;20428;-73
2024/01/27 02:32:51;;;;;;;15.88;6.78;;;;;;;-3.90;99.05;101105.63;10401093;28;20041;-73
2024/01/27 02:37:53;;;;;;;10.30;6.18;;;;;;;-3.73;99.10;101101.03;10411084;28;20045;-72
2024/01/27 02:42:56;;;;;;;14.65;7.35;;;;;;;-3.67;99.51;101095.78;10403713;28;20084;-73
2024/01/27 02:47:58;;;;;;;14.45;7.43;;;;;;;-3.54;99.12;101100.56;10385142;28;20077;-72
2024/01/27 02:53:00;;;;;;;11.07;5.97;;;;;;;-3.59;98.07;101099.44;10377263;28;20053;-72
2024/01/27 02:58:02;;;;;;;9.57;6.00;;;;;;;-3.57;97.84;101098.25;10402884;28;20060;-73
2024/01/27 03:03:05;;;;;;;10.02;5.47;;;;;;;-3.58;97.67;101093.91;10400009;28;20033;-72
2024/01/27 03:08:07;;;;;;;8.30;4.65;;;;;;;-3.61;97.31;101088.88;10378565;28;20557;-72
2024/01/27 03:13:09;;;;;;;7.55;4.90;;;;;;;-3.64;96.72;101102.66;10401618;28;20040;-73
2024/01/27 03:18:12;;;;;;;7.70;4.40;;;;;;;-3.66;96.72;101104.66;10403639;28;20041;-72
2024/01/27 03:23:14;;;;;;;9.93;4.35;;;;;;;-3.68;96.06;101104.00;10409260;28;20512;-73
2024/01/27 03:28:16;;;;;;;5.32;3.80;;;;;;;-3.72;96.48;101097.34;10381708;28;20041;-73
2024/01/27 03:33:18;;;;;;;5.05;3.72;;;;;;;-3.81;96.04;101106.44;10398750;28;20046;-73
2024/01/27 03:38:21;;;;;;;4.50;3.22;;;;;;;-3.84;96.39;101099.56;10397037;28;20048;-73
2024/01/27 03:43:23;;;;;;;5.43;3.88;;;;;;;-3.83;96.15;101111.13;10400903;28;20042;-72
2024/01/27 03:48:26;;;;;;;5.88;3.95;;;;;;;-3.80;96.40;101110.81;10401969;28;20053;-73
2024/01/27 03:53:28;;;;;;;7.22;4.78;;;;;;;-3.75;96.54;101116.47;10383785;28;20120;-72
2024/01/27 03:58:31;;;;;;;5.65;3.95;;;;;;;-3.85;96.65;101119.34;10406037;28;20501;-72
2024/01/27 04:03:33;;;;;;;6.93;4.88;;;;;;;-3.91;96.19;101130.78;10437255;28;20049;-71
2024/01/27 04:08:36;;;;;;;5.97;4.88;;;;;;;-4.01;96.65;101138.19;10406946;28;20060;-72
2024/01/27 04:13:38;;;;;;;7.20;5.82;;;;;;;-4.12;96.64;101142.09;10411573;28;20045;-72
2024/01/27 04:18:42;;;;;;;8.65;6.55;;;;;;;-4.25;96.65;101141.78;10366145;28;20133;-72
2024/01/27 04:23:44;;;;;;;8.45;5.68;;;;;;;-4.28;97.17;101142.16;10369540;28;20508;-72
2024/01/27 04:28:47;;;;;;;9.48;5.82;;;;;;;-4.19;97.79;101154.50;10406370;28;20046;-72
2024/01/27 04:33:50;;;;;;;9.00;5.88;;;;;;;-4.16;98.36;101164.91;10399543;28;20053;-72
2024/01/27 04:38:52;;;;;;;10.95;6.68;;;;;;;-4.21;98.19;101167.22;10395327;28;20067;-72
2024/01/27 04:43:56;;;;;;;10.55;6.38;;;;;;;-4.25;98.14;101158.72;10376453;28;20044;-72
2024/01/27 04:48:58;;;;;;;10.13;6.40;;;;;;;-4.23;98.33;101165.75;10399113;28;20045;-72
2024/01/27 04:54:01;;;;;;;10.13;5.75;;;;;;;-4.20;98.32;101176.09;10390982;28;20528;-72
2024/01/27 04:59:03;;;;;;;10.30;6.18;;;;;;;-4.14;98.28;101188.84;10376307;28;20029;-72
2024/01/27 05:04:05;;;;;;;9.85;6.03;;;;;;;-4.13;97.57;101199.38;10409837;28;20038;-72
2024/01/27 05:09:08;;;;;;;10.05;6.50;;;;;;;-4.07;98.04;101201.38;10414343;28;20461;-72
2024/01/27 05:14:10;;;;;;;8.82;5.90;;;;;;;-4.20;97.33;101206.41;10407226;28;20037;-72
2024/01/27 05:19:12;;;;;;;12.35;7.07;;;;;;;-4.17;97.97;101219.47;10404660;28;20413;-72
2024/01/27 05:24:14;;;;;;;11.95;6.97;;;;;;;-4.22;97.78;101207.59;10417373;28;20038;-71
2024/01/27 05:29:17;;;;;;;11.35;7.30;;;;;;;-4.12;98.00;101219.81;10410998;28;20437;-72
2024/01/27 05:34:19;;;;;;;11.98;7.22;;;;;;;-4.09;98.06;101219.47;10372512;28;20041;-72
2024/01/27 05:39:22;;;;;;;11.77;7.00;;;;;;;-4.15;98.26;101224.69;10401933;28;20034;-72
2024/01/27 05:44:25;;;;;;;11.23;6.63;;;;;;;-4.14;98.16;101227.19;10404930;28;20528;-72
2024/01/27 05:49:27;;;;;;;9.82;6.65;;;;;;;-4.17;98.28;101235.53;10401371;28;20037;-72
2024/01/27 05:54:29;;;;;;;11.70;6.45;;;;;;;-4.17;98.82;101246.25;10381326;28;20050;-72
2024/01/27 05:59:31;;;;;;;12.35;7.30;;;;;;;-4.06;98.49;101237.03;10380047;28;20080;-73
2024/01/27 06:04:34;;;;;;;12.60;7.40;;;;;;;-4.05;98.49;101247.59;10400170;28;20033;-72
2024/01/27 06:09:39;;;;;;;12.00;7.38;;;;;;;-4.11;98.87;101248.28;10376787;28;20049;-72
2024/01/27 06:14:42;;;;;;;14.52;8.88;;;;;;;-3.92;98.81;101260.47;10398867;28;20042;-73
2024/01/27 06:19:45;;;;;;;12.65;8.30;;;;;;;-3.92;98.36;101260.47;10403319;28;20128;-73
2024/01/27 06:24:47;;;;;;;13.95;8.35;;;;;;;-3.96;98.32;101269.88;10387549;28;20033;-72
2024/01/27 06:29:49;;;;;;;14.10;8.50;;;;;;;-3.97;98.83;101260.16;10404484;28;20045;-73
2024/01/27 06:34:51;;;;;;;12.93;8.43;;;;;;;-3.84;98.17;101270.31;10406940;28;20038;-73
2024/01/27 06:39:54;;;;;;;12.98;8.25;;;;;;;-3.80;98.41;101269.00;10445766;28;20052;-73
2024/01/27 06:44:56;;;;;;;15.63;8.75;;;;;;;-3.80;97.73;101272.50;10436225;28;20038;-72
2024/01/27 06:49:58;;;;;;;15.15;8.75;;;;;;;-3.76;97.47;101278.34;10428019;28;20042;-73
2024/01/27 06:55:00;;;;;;;13.40;7.78;;;;;;;-3.72;97.35;101287.72;10441320;28;20054;-73
2024/01/27 07:00:03;;;;;;;12.27;8.25;;;;;;;-3.70;97.47;101283.84;10398601;28;20042;-73
2024/01/27 07:05:06;;;;;;;13.40;7.85;;;;;;;-3.65;97.23;101291.38;10380797;28;20424;-72
2024/01/27 07:10:08;;;;;;;13.57;7.68;;;;;;;-3.72;96.83;101298.44;10404944;28;20041;-73
2024/01/27 07:15:10;;;;;;;9.40;5.75;;;;;;;-3.76;96.38;101297.97;10401450;28;20061;-72
2024/01/27 07:20:14;;;;;;;8.60;5.25;;;;;;;-3.72;96.90;101311.84;10385076;28;20053;-73
2024/01/27 07:25:16;;;;;;;12.15;6.13;;;;;;;-3.61;96.46;101319.56;10372798;28;20045;-73
2024/01/27 07:30:19;;;;;;;10.13;5.25;;;;;;;-3.54;95.67;101319.69;10367686;28;20041;-74
2024/01/27 07:35:21;;;;;;;10.35;4.93;;;;;;;-3.56;95.93;101327.91;10392107;28;20033;-73
2024/01/27 07:40:25;;;;;;;9.25;5.63;;;;;;;-3.60;95.64;101337.31;10409923;28;20050;-72
2024/01/27 07:45:27;;;;;;;9.55;5.38;;;;;;;-3.45;94.98;101345.50;10404800;28;20038;-74
2024/01/27 07:50:30;;;;;;;9.80;5.20;;;;;;;-3.52;95.01;101353.38;10384902;28;20555;-72
2024/01/27 07:55:34;;;;;;;7.80;4.45;;;;;;;-3.56;94.28;101360.09;10380142;28;20050;-73
2024/01/27 08:00:36;;;;;;;11.43;5.10;;;;;;;-3.47;94.44;101367.13;10401460;28;20856;-72
2024/01/27 08:05:39;;;;;;;9.02;5.20;;;;;;;-3.49;94.21;101374.50;10379909;28;20421;-73
2024/01/27 08:10:42;;;;;;;11.25;5.22;;;;;;;-3.49;95.22;101381.69;10420455;28;20046;-73
2024/01/27 08:15:46;;;;;;;10.70;6.00;;;;;;;-3.40;94.83;101394.09;10381562;28;20045;-73
2024/01/27 08:20:49;;;;;;;11.20;6.05;;;;;;;-3.40;94.63;101397.63;10401017;28;20034;-74
2024/01/27 08:25:52;;;;;;;11.25;5.88;;;;;;;-3.46;94.54;101401.00;10386857;28;20422;-73
2024/01/27 08:30:54;;;;;;;9.85;5.97;;;;;;;-3.30;95.32;101401.94;10407648;28;20053;-73
2024/01/27 08:35:57;;;;;;;10.73;6.53;;;;;;;-3.26;94.51;101403.28;10408899;28;20045;-72
2024/01/27 08:40:59;;;;;;;9.25;5.53;;;;;;;-3.39;93.96;101403.81;10389858;28;20045;-72
2024/01/27 08:46:02;;;;;;;8.48;5.07;;;;;;;-3.34;94.78;101413.03;10392314;28;20042;-73
2024/01/27 08:51:04;;;;;;;7.70;5.07;;;;;;;-3.34;94.12;101418.41;10389878;28;20042;-73
2024/01/27 08:56:07;;;;;;;9.60;5.65;;;;;;;-3.35;94.11;101422.09;10387034;28;20480;-74
2024/01/27 09:01:12;;;;;;;6.07;4.75;;;;;;;-3.23;93.39;101427.09;10373797;28;20045;-73
2024/01/27 09:06:16;;;;;;;9.05;5.00;;;;;;;-2.97;93.65;101430.38;10379165;28;20038;-72
2024/01/27 09:11:18;;;;;;;6.75;4.25;;;;;;;-3.03;92.26;101442.63;10379898;28;20049;-72
2024/01/27 09:16:21;;;;;;;7.05;4.60;;;;;;;-3.05;92.71;101443.81;10365578;28;20064;-70
2024/01/27 09:21:28;;;;;;;5.93;4.25;;;;;;;-3.09;92.75;101442.50;10392378;28;20152;-70
2024/01/27 09:26:30;;;;;;;7.13;4.22;;;;;;;-2.96;92.42;101445.47;10407556;28;20044;-72
2024/01/27 09:31:33;;;;;;;6.35;4.10;;;;;;;-3.16;91.55;101452.22;10397184;28;20042;-70
2024/01/27 09:36:51;;;;;;;7.53;5.10;;;;;;;-3.09;92.27;101456.75;10365852;28;20050;-72
2024/01/27 09:42:15;;;;;;;5.07;3.75;;;;;;;-3.09;92.24;101459.44;10388773;28;20034;-68
2024/01/27 09:47:34;;;;;;;5.57;4.55;;;;;;;-3.16;92.09;101455.75;10398838;28;20583;-70
2024/01/27 09:52:39;;;;;;;;;;;;;;;-3.16;91.53;101446.88;10393231;28;20441;-72
2024/01/27 09:57:41;;;;;;;6.85;4.63;;;;;;;-3.09;91.85;101445.19;10377116;28;19917;-71
2024/01/27 10:02:46;;;;;;;8.18;4.60;;;;;;;-2.94;91.04;101446.16;10419918;28;20034;-70
2024/01/27 10:07:48;;;;;;;7.68;5.40;;;;;;;-2.95;91.04;101449.84;10410817;28;20042;-69
2024/01/27 10:12:53;;;;;;;8.68;5.30;;;;;;;-3.00;91.11;101448.66;10395743;28;20524;-68
2024/01/27 10:18:08;;;;;;;7.65;4.80;;;;;;;-2.84;90.80;101460.19;10346948;28;20048;-68
2024/01/27 10:23:13;;;;;;;7.30;5.43;;;;;;;-2.75;90.54;101464.53;10370859;28;20092;-71
2024/01/27 10:28:15;;;;;;;7.13;5.18;;;;;;;-2.71;89.91;101458.81;10383076;28;20042;-70
2024/01/27 10:33:18;;;;;;;7.88;5.00;;;;;;;-2.70;89.02;101452.44;10370722;28;20038;-73
2024/01/27 10:38:20;;;;;;;6.93;4.85;;;;;;;-2.69;89.07;101457.63;10399023;28;20052;-68
2024/01/27 10:43:22;;;;;;;8.50;5.38;;;;;;;-2.57;89.11;101468.84;10370331;28;20034;-69
2024/01/27 10:48:25;;;;;;;7.05;4.60;;;;;;;-2.54;88.50;101468.47;10354759;28;20430;-68
2024/01/27 10:53:30;;;;;;;8.43;4.63;;;;;;;-2.86;88.08;101458.69;10380640;28;20049;-68
2024/01/27 10:58:40;;;;;;;5.70;4.50;;;;;;;-2.76;88.17;101470.09;10367275;28;20049;-68
2024/01/27 11:03:43;;;;;;;6.25;4.47;;;;;;;-2.59;87.70;101471.69;10378890;28;20038;-68
2024/01/27 11:08:47;;;;;;;6.82;4.78;;;;;;;-2.53;87.22;101470.16;10382742;28;20041;-68
2024/01/27 11:13:50;;;;;;;6.15;4.40;;;;;;;-2.51;86.94;101476.19;10384603;28;20385;-67
2024/01/27 11:18:53;;;;;;;5.60;3.78;;;;;;;-2.43;86.54;101484.19;10385381;28;20038;-68
2024/01/27 11:23:55;;;;;;;5.30;3.20;;;;;;;-2.39;86.24;101485.53;10384466;28;20037;-68
2024/01/27 11:29:06;;;;;;;5.35;3.30;;;;;;;-2.36;86.20;101492.41;10380658;28;20092;-68
2024/01/27 11:34:12;;;;;;;5.10;3.55;;;;;;;-2.26;86.90;101499.22;10395216;28;20030;-68
2024/01/27 11:39:27;;;;;;;5.43;3.15;;;;;;;-2.24;86.12;101502.59;10378790;28;20044;-69
2024/01/27 11:44:29;;;;;;;5.40;4.07;;;;;;;-2.22;85.76;101508.63;10396214;28;20040;-68
2024/01/27 11:49:37;;;;;;;7.85;3.80;;;;;;;-2.28;86.06;101512.00;10395389;28;20040;-68
2024/01/27 11:54:53;;;;;;;6.55;4.13;;;;;;;-2.22;85.75;101530.13;10389297;28;20050;-69
2024/01/27 12:00:03;;;;;;;6.53;4.30;;;;;;;-2.41;86.17;101533.25;10379144;28;20034;-69
2024/01/27 12:05:10;;;;;;;7.65;4.18;;;;;;;-2.45;86.08;101535.44;10366018;28;20042;-68
2024/01/27 12:10:15;;;;;;;5.72;4.07;;;;;;;-2.46;86.17;101540.97;10374001;28;20034;-68
2024/01/27 12:15:20;;;;;;;7.88;4.47;;;;;;;-2.41;86.31;101544.00;10379317;28;20555;-68
2024/01/27 12:20:23;;;;;;;5.10;3.75;;;;;;;-2.45;85.58;101537.28;10397953;28;20053;-68
2024/01/27 12:25:25;;;;;;;5.63;3.85;;;;;;;-2.45;85.70;101548.88;10375710;28;20524;-68
2024/01/27 12:30:27;;;;;;;5.50;3.72;;;;;;;-2.50;85.87;101558.47;10400443;28;20037;-69
2024/01/27 12:35:30;;;;;;;4.97;3.60;;;;;;;-2.53;85.79;101556.13;10402027;28;20304;-69
2024/01/27 12:40:32;;;;;;;5.32;3.75;;;;;;;-2.58;85.75;101559.34;10379936;28;20406;-68
2024/01/27 12:45:35;;;;;;;6.13;3.97;;;;;;;-2.56;86.21;101569.91;10394444;28;20417;-68
2024/01/27 12:50:38;;;;;;;4.93;3.90;;;;;;;-2.65;86.38;101574.47;10399130;28;20050;-68
2024/01/27 12:55:40;;;;;;;4.03;3.00;;;;;;;-2.76;86.22;101583.75;10398288;28;20054;-68
2024/01/27 13:00:42;;;;;;;4.80;2.92;;;;;;;-2.77;86.57;101590.13;10393572;28;20052;-67
2024/01/27 13:05:45;;;;;;;6.43;3.50;;;;;;;-2.68;86.53;101590.94;10410853;28;20044;-68
2024/01/27 13:10:48;;;;;;;5.53;3.40;;;;;;;-2.62;86.62;101600.97;10380921;28;20413;-68
2024/01/27 13:15:50;;;;;;;5.18;3.17;;;;;;;-2.67;86.22;101606.03;10415672;28;20048;-68
2024/01/27 13:20:53;;;;;;;4.03;3.10;;;;;;;-2.73;86.79;101614.78;10404488;28;20525;-68
2024/01/27 13:25:55;;;;;;;4.82;3.22;;;;;;;-2.72;87.14;101621.84;10375879;28;20076;-65
2024/01/27 13:30:58;;;;;;;4.80;3.50;;;;;;;-2.77;87.17;101625.03;10388257;28;20052;-68
2024/01/27 13:36:00;;;;;;;6.60;3.50;;;;;;;-2.82;87.12;101637.28;10422279;28;20030;-66
2024/01/27 13:41:03;;;;;;;3.78;3.03;;;;;;;-2.76;87.43;101639.31;10403028;28;20041;-68
2024/01/27 13:46:05;;;;;;;5.40;3.20;;;;;;;-2.75;87.60;101635.63;10388184;28;20033;-66
2024/01/27 13:51:08;;;;;;;4.60;3.60;;;;;;;-2.81;88.02;101638.97;10387025;28;20116;-67
2024/01/27 13:56:10;;;;;;;4.35;3.28;;;;;;;-2.79;88.07;101645.84;10403794;28;20046;-67
2024/01/27 14:01:13;;;;;;;6.72;3.40;;;;;;;-2.77;88.48;101645.69;10389911;28;20549;-67
2024/01/27 14:06:15;;;;;;;5.97;3.97;;;;;;;-2.77;87.80;101651.91;10399142;28;20045;-67
2024/01/27 14:11:18;;;;;;;4.60;3.40;;;;;;;-2.77;88.07;101643.84;10385288;28;20425;-67
2024/01/27 14:16:21;;;;;;;5.07;3.60;;;;;;;-2.75;88.26;101657.09;10398256;28;20034;-67
2024/01/27 14:21:23;;;;;;;4.38;3.13;;;;;;;-2.69;88.39;101652.88;10374000;28;20430;-68
2024/01/27 14:26:28;;;;;;;4.32;3.03;;;;;;;-2.70;88.37;101661.97;10401012;28;20042;-68
2024/01/27 14:31:30;;;;;;;5.25;3.30;;;;;;;-2.76;88.27;101666.16;10365064;28;20041;-67
2024/01/27 14:36:33;;;;;;;4.38;3.38;;;;;;;-2.69;88.53;101671.69;10428151;28;20048;-68
2024/01/27 14:41:40;;;;;;;5.35;3.00;;;;;;;-2.74;88.70;101682.97;10360798;28;20050;-68
2024/01/27 14:46:54;;;;;;;5.95;3.10;;;;;;;-2.77;88.89;101688.66;10385804;28;20045;-68
2024/01/27 14:52:00;;;;;;;4.82;2.90;;;;;;;-2.77;88.88;101686.81;10368993;28;20033;-69
2024/01/27 14:57:04;;;;;;;4.20;2.95;;;;;;;-2.72;88.98;101701.59;10403417;28;20045;-70
2024/01/27 15:02:09;;;;;;;5.70;3.40;;;;;;;-2.66;88.94;101707.13;10389930;28;20042;-68
2024/01/27 15:07:17;;;;;;;4.85;3.30;;;;;;;-2.66;89.23;101698.22;10387759;28;20040;-68
2024/01/27 15:12:25;;;;;;;4.75;3.80;;;;;;;-2.63;88.94;101706.78;10360669;28;20414;-71
2024/01/27 15:17:28;;;;;;;7.18;4.40;;;;;;;-2.54;88.96;101699.56;10382933;28;20038;-71
2024/01/27 15:22:30;;;;;;;7.47;4.05;;;;;;;-2.53;88.65;101709.28;10382754;28;20049;-71
2024/01/27 15:27:33;;;;;;;5.38;3.40;;;;;;;-2.56;88.85;101715.03;10381586;28;20038;-70
2024/01/27 15:32:35;;;;;;;4.57;3.60;;;;;;;-2.56;88.86;101717.69;10398402;28;20438;-72
2024/01/27 15:37:38;;;;;;;7.70;3.80;;;;;;;-2.55;89.15;101717.53;10367678;28;20042;-68
2024/01/27 15:42:40;;;;;;;5.05;3.95;;;;;;;-2.58;88.82;101714.34;10362183;28;20038;-69
2024/01/27 15:47:44;;;;;;;4.18;2.78;;;;;;;-2.58;89.02;101717.88;10366754;28;20057;-69
2024/01/27 15:52:50;;;;;;;5.18;2.65;;;;;;;-2.58;89.00;101712.50;10367002;28;20050;-69
2024/01/27 15:57:53;;;;;;;1.63;1.30;;;;;;;-2.57;89.02;101713.34;10374084;28;20044;-69
2024/01/27 16:02:55;;;;;;;2.85;1.85;;;;;;;-2.50;88.61;101715.16;10381059;28;20513;-71
2024/01/27 16:07:57;;;;;;;3.65;2.40;;;;;;;-2.54;88.34;101721.06;10377650;28;20045;-68
2024/01/27 16:12:59;;;;;;;5.15;2.85;;;;;;;-2.50;88.22;101723.22;10393321;28;20037;-67
2024/01/27 16:18:02;;;;;;;3.63;2.50;;;;;;;-2.53;88.24;101723.56;10381359;28;20041;-69
2024/01/27 16:23:05;;;;;;;3.72;2.25;;;;;;;-2.52;87.53;101730.63;10374499;28;20041;-67
2024/01/27 16:28:09;;;;;;;3.58;2.63;;;;;;;-2.47;88.44;101714.81;10397410;28;20034;-66
2024/01/27 16:33:11;;;;;;;3.50;2.30;;;;;;;-2.46;88.09;101726.41;10377315;28;20036;-69
2024/01/27 16:38:13;;;;;;;3.33;1.98;;;;;;;-2.51;88.09;101723.41;10411381;28;20042;-69
2024/01/27 16:43:16;;;;;;;3.00;2.65;;;;;;;-2.48;88.08;101721.22;10396517;28;20029;-69
2024/01/27 16:48:18;;;;;;;3.30;2.40;;;;;;;-2.47;87.74;101714.00;10383060;28;20053;-69
2024/01/27 16:53:20;;;;;;;3.97;2.30;;;;;;;-2.39;88.08;101714.00;10351822;28;20065;-69
2024/01/27 16:58:23;;;;;;;3.33;2.00;;;;;;;-2.38;87.56;101712.97;10402110;28;20049;-69
2024/01/27 17:03:25;;;;;;;4.35;2.40;;;;;;;-2.45;87.59;101715.50;10384181;28;20038;-69
2024/01/27 17:08:28;;;;;;;3.03;2.35;;;;;;;-2.44;87.62;101719.00;10409742;28;20428;-69
2024/01/27 17:13:31;;;;;;;3.25;2.30;;;;;;;-2.42;87.74;101718.88;10392398;28;20052;-69
2024/01/27 17:18:33;;;;;;;3.20;2.00;;;;;;;-2.39;87.89;101716.69;10375342;28;20061;-69
2024/01/27 17:23:36;;;;;;;4.55;2.63;;;;;;;-2.36;87.44;101707.44;10409028;28;20053;-69
2024/01/27 17:28:38;;;;;;;3.33;2.00;;;;;;;-2.40;87.08;101701.56;10375172;28;20871;-69
2024/01/27 17:33:41;;;;;;;4.60;2.25;;;;;;;-2.41;87.56;101705.25;10374497;28;20052;-69
2024/01/27 17:38:43;;;;;;;4.43;2.33;;;;;;;-2.39;87.62;101705.94;10408264;28;20497;-69
2024/01/27 17:43:51;;;;;;;2.80;2.13;;;;;;;-2.41;88.02;101697.19;10374693;28;20048;-71
2024/01/27 17:48:56;;;;;;;3.55;2.15;;;;;;;-2.38;87.26;101704.09;10390722;28;20506;-71
2024/01/27 17:54:05;;;;;;;3.00;1.55;;;;;;;-2.34;87.49;101703.56;10358056;28;20549;-69
2024/01/27 17:59:10;;;;;;;4.15;2.35;;;;;;;-2.33;87.17;101702.56;10374527;28;20044;-69
2024/01/27 18:04:21;;;;;;;3.85;2.22;;;;;;;-2.31;87.75;101710.44;10357566;28;20050;-69
2024/01/27 18:09:23;;;;;;;3.38;2.30;;;;;;;-2.33;87.34;101712.47;10389950;28;20048;-70
2024/01/27 18:14:26;;;;;;;3.65;2.20;;;;;;;-2.34;87.37;101718.84;10373526;28;20056;-70
2024/01/27 18:19:28;;;;;;;3.45;2.35;;;;;;;-2.34;87.74;101730.44;10406806;28;20038;-69
2024/01/27 18:24:31;;;;;;;3.45;2.28;;;;;;;-2.34;87.74;101737.66;10406633;28;20402;-70
2024/01/27 18:29:33;;;;;;;3.92;2.00;;;;;;;-2.32;87.77;101736.47;10356822;28;20045;-71
2024/01/27 18:34:35;;;;;;;3.17;2.17;;;;;;;-2.25;87.50;101734.81;10376084;28;20049;-71
2024/01/27 18:39:37;;;;;;;3.65;2.60;;;;;;;-2.26;87.47;101745.72;10374838;28;20050;-71
2024/01/27 18:44:41;;;;;;;3.30;2.20;;;;;;;-2.26;88.33;101745.72;10372375;28;20042;-71
2024/01/27 18:49:43;;;;;;;5.22;2.35;;;;;;;-2.25;87.84;101745.56;10356100;28;20061;-71
2024/01/27 18:54:46;;;;;;;2.92;2.03;;;;;;;-2.22;87.61;101757.81;10371176;28;20068;-69
2024/01/27 18:59:49;;;;;;;3.42;2.20;;;;;;;-2.25;88.07;101761.69;10371502;28;20038;-69
2024/01/27 19:04:53;;;;;;;5.38;2.40;;;;;;;-2.25;88.09;101775.13;10387748;28;20409;-69
2024/01/27 19:09:55;;;;;;;3.75;2.33;;;;;;;-2.21;88.17;101781.84;10404738;28;20042;-69
2024/01/27 19:14:57;;;;;;;3.80;2.65;;;;;;;-2.19;88.56;101784.38;10386841;28;20042;-69
2024/01/27 19:20:00;;;;;;;3.83;2.50;;;;;;;-2.23;88.42;101773.13;10354862;28;20437;-69
2024/01/27 19:25:02;;;;;;;4.00;2.00;;;;;;;-2.19;88.03;101779.00;10354746;28;20414;-69
2024/01/27 19:30:05;;;;;;;3.35;2.03;;;;;;;-2.21;87.79;101776.47;10369294;28;20046;-69
2024/01/27 19:35:08;;;;;;;2.60;1.75;;;;;;;-2.21;87.39;101781.84;10386534;28;20053;-69
2024/01/27 19:40:12;;;;;;;2.10;1.50;;;;;;;-2.21;87.45;101784.53;10386368;28;20048;-70
2024/01/27 19:45:15;;;;;;;4.13;2.03;;;;;;;-2.14;87.57;101798.13;10370332;28;20037;-69
2024/01/27 19:50:18;;;;;;;4.45;2.30;;;;;;;-2.09;87.96;101800.31;10385866;28;20049;-69
2024/01/27 19:55:21;;;;;;;2.78;1.73;;;;;;;-2.10;87.09;101802.16;10369398;28;20069;-70
2024/01/27 20:00:29;;;;;;;2.17;1.63;;;;;;;-2.16;87.20;101798.31;10369555;28;20038;-70
2024/01/27 20:05:31;;;;;;;3.47;1.58;;;;;;;-2.10;87.44;101801.31;10369597;28;20045;-70
2024/01/27 20:10:33;;;;;;;4.40;1.88;;;;;;;-2.10;87.21;101793.25;10369358;28;20049;-69
2024/01/27 20:15:36;;;;;;;3.30;2.05;;;;;;;-2.14;86.99;101798.97;10368788;28;20425;-71
2024/01/27 20:20:38;;;;;;;2.67;1.58;;;;;;;-2.10;87.41;101796.78;10368471;28;20034;-71
2024/01/27 20:25:40;;;;;;;3.10;2.20;;;;;;;-2.09;87.44;101794.91;10336532;28;20046;-70
2024/01/27 20:30:43;;;;;;;4.05;2.17;;;;;;;-2.07;87.33;101799.16;10352473;28;20041;-71
2024/01/27 20:35:45;;;;;;;2.72;1.75;;;;;;;-2.08;87.55;101804.66;10384599;28;20044;-72
2024/01/27 20:40:48;;;;;;;3.38;2.10;;;;;;;-2.09;87.58;101819.13;10368644;28;20054;-71
2024/01/27 20:45:50;;;;;;;2.90;1.75;;;;;;;-2.04;87.50;101808.72;10352311;28;20042;-71
2024/01/27 20:50:54;;;;;;;3.25;2.33;;;;;;;-2.12;87.90;101818.47;10384367;28;20038;-71
2024/01/27 20:55:56;;;;;;;2.50;1.85;;;;;;;-2.12;88.43;101818.47;10384006;28;20054;-71
2024/01/27 21:00:59;;;;;;;3.78;2.08;;;;;;;-2.07;89.19;101822.50;10351733;28;20410;-71
2024/01/27 21:06:01;;;;;;;4.15;2.10;;;;;;;-2.15;88.91;101815.28;10384073;28;20045;-71
2024/01/27 21:11:08;;;;;;;4.75;1.90;;;;;;;-2.13;89.56;101822.16;10351570;28;20052;-71
2024/01/27 21:16:10;;;;;;;2.45;1.70;;;;;;;-2.04;89.26;101812.25;10351685;28;20046;-71
2024/01/27 21:21:13;;;;;;;3.95;2.30;;;;;;;-2.04;89.20;101819.47;10383627;28;20053;-71
2024/01/27 21:26:17;;;;;;;3.17;2.17;;;;;;;-2.08;89.10;101821.69;10367767;28;20038;-71
2024/01/27 21:31:20;;;;;;;2.92;1.90;;;;;;;-2.07;88.78;101803.69;10367890;28;20045;-71
2024/01/27 21:36:22;;;;;;;3.63;2.47;;;;;;;-1.97;88.85;101812.41;10367394;28;20095;-71
2024/01/27 21:41:25;;;;;;;2.65;1.70;;;;;;;-2.05;88.76;101812.41;10351451;28;20046;-71
2024/01/27 21:46:27;;;;;;;4.00;1.92;;;;;;;-2.04;89.02;101811.41;10367420;28;20042;-71
2024/01/27 21:51:31;;;;;;;5.22;2.38;;;;;;;-2.04;89.18;101800.66;10354105;28;20044;-71
2024/01/27 21:56:33;;;;;;;5.82;2.60;;;;;;;-2.05;89.36;101807.03;10361096;28;20060;-71
2024/01/27 22:01:36;;;;;;;4.55;2.28;;;;;;;-2.10;89.44;101809.38;10377025;28;20045;-71
2024/01/27 22:06:39;;;;;;;4.05;2.50;;;;;;;-2.12;90.69;101798.78;10374380;28;20041;-71
2024/01/27 22:11:43;;;;;;;5.60;2.80;;;;;;;-2.12;90.86;101790.72;10389818;28;20045;-71
2024/01/27 22:16:47;;;;;;;2.42;1.75;;;;;;;-2.16;90.90;101805.53;10373803;28;20042;-72
2024/01/27 22:21:53;;;;;;;4.32;2.08;;;;;;;-2.15;91.15;101808.03;10373189;28;20049;-72
2024/01/27 22:26:55;;;;;;;2.95;1.90;;;;;;;-2.19;91.49;101804.03;10372538;28;20407;-70
2024/01/27 22:31:58;;;;;;;3.65;2.50;;;;;;;-2.17;91.64;101818.13;10384363;28;20421;-71
2024/01/27 22:37:00;;;;;;;5.10;2.40;;;;;;;-2.19;91.36;101811.25;10356483;28;20042;-70
2024/01/27 22:42:02;;;;;;;2.08;1.50;;;;;;;-2.15;90.90;101817.97;10372372;28;20049;-70
2024/01/27 22:47:05;;;;;;;3.33;1.85;;;;;;;-2.15;90.59;101829.56;10372440;28;20064;-70
2024/01/27 22:52:07;;;;;;;2.08;1.20;;;;;;;-2.10;89.98;101828.19;10388367;28;20405;-70
2024/01/27 22:57:09;;;;;;;2.85;1.80;;;;;;;-2.14;91.10;101825.03;10355441;28;20041;-71
2024/01/27 23:02:13;;;;;;;2.75;2.00;;;;;;;-2.16;91.16;101814.44;10338717;28;20033;-71
2024/01/27 23:07:15;;;;;;;3.88;2.47;;;;;;;-2.17;90.68;101817.28;10371923;28;20038;-71